createdAt,value
2023-02-09T00:01:23.293Z,100.00
2023-02-09T00:03:51.154Z,100.00
2023-02-09T00:06:20.314Z,100.00
2023-02-09T00:08:48.136Z,100.00
2023-02-09T00:11:46.160Z,100.00
2023-02-09T00:14:15.259Z,100.00
2023-02-09T00:16:42.802Z,100.00
2023-02-09T00:19:11.444Z,100.00
2023-02-09T00:21:39.131Z,100.00
2023-02-09T00:24:07.790Z,100.00
2023-02-09T00:26:36.519Z,100.00
2023-02-09T00:29:04.115Z,100.00
2023-02-09T00:31:31.993Z,100.00
2023-02-09T00:33:59.852Z,100.00
2023-02-09T00:36:27.805Z,100.00
2023-02-09T00:38:55.236Z,100.00
2023-02-09T00:41:42.610Z,100.00
2023-02-09T00:44:13.456Z,100.00
2023-02-09T00:46:40.751Z,100.00
2023-02-09T00:49:08.266Z,100.00
2023-02-09T00:51:35.716Z,100.00
2023-02-09T00:54:03.624Z,100.00
2023-02-09T00:56:30.992Z,100.00
2023-02-09T00:58:58.317Z,100.00
2023-02-09T01:01:26.065Z,100.00
2023-02-09T01:03:54.058Z,100.00
2023-02-09T01:06:21.599Z,100.00
2023-02-09T01:08:50.884Z,100.00
2023-02-09T01:11:18.618Z,100.00
2023-02-09T01:13:46.505Z,100.00
2023-02-09T01:16:17.289Z,100.00
2023-02-09T01:18:45.484Z,100.00
2023-02-09T01:21:15.058Z,100.00
2023-02-09T01:23:42.371Z,100.00
2023-02-09T01:26:14.857Z,100.00
2023-02-09T01:28:42.452Z,100.00
2023-02-09T01:31:22.021Z,100.00
2023-02-09T01:33:51.405Z,100.00
2023-02-09T01:36:18.880Z,100.00
2023-02-09T01:38:46.306Z,100.00
2023-02-09T01:41:14.006Z,100.00
2023-02-09T01:43:56.750Z,100.00
2023-02-09T01:46:26.217Z,100.00
2023-02-09T01:49:01.217Z,100.00
2023-02-09T01:51:29.210Z,100.00
2023-02-09T01:53:57.723Z,100.00
2023-02-09T01:56:29.889Z,100.00
2023-02-09T01:58:57.723Z,100.00
2023-02-09T02:01:25.760Z,100.00
2023-02-09T02:03:53.754Z,100.00
2023-02-09T02:06:21.397Z,100.00
2023-02-09T02:09:01.250Z,100.00
2023-02-09T02:11:29.840Z,100.00
2023-02-09T02:13:58.173Z,100.00
2023-02-09T02:16:34.436Z,100.00
2023-02-09T02:19:34.482Z,100.00
2023-02-09T02:22:19.955Z,100.00
2023-02-09T02:24:53.247Z,100.00
2023-02-09T02:27:41.703Z,100.00
2023-02-09T02:30:23.417Z,100.00
2023-02-09T02:33:14.451Z,100.00
2023-02-09T02:35:55.536Z,100.00
2023-02-09T02:38:44.789Z,100.00
2023-02-09T02:41:25.891Z,100.00
2023-02-09T02:44:03.668Z,100.00
2023-02-09T02:46:38.073Z,100.00
2023-02-09T02:49:22.692Z,100.00
2023-02-09T02:51:53.842Z,100.00
2023-02-09T02:54:29.655Z,100.00
2023-02-09T02:57:04.476Z,100.00
2023-02-09T02:59:34.699Z,100.00
2023-02-09T03:02:10.573Z,100.00
2023-02-09T03:04:38.835Z,100.00
2023-02-09T03:07:09.772Z,100.00
2023-02-09T03:09:37.298Z,100.00
2023-02-09T03:12:38.126Z,100.00
2023-02-09T03:15:23.325Z,100.00
2023-02-09T03:18:13.277Z,100.00
2023-02-09T03:20:50.461Z,100.00
2023-02-09T03:23:43.015Z,100.00
2023-02-09T03:26:14.685Z,100.00
2023-02-09T03:28:43.979Z,100.00
2023-02-09T03:31:11.526Z,100.00
2023-02-09T03:33:39.446Z,100.00
2023-02-09T03:36:14.583Z,100.00
2023-02-09T03:38:41.990Z,100.00
2023-02-09T03:41:09.350Z,100.00
2023-02-09T03:43:55.188Z,100.00
2023-02-09T03:46:22.776Z,100.00
2023-02-09T03:48:50.746Z,100.00
2023-02-09T03:51:18.054Z,100.00
2023-02-09T03:53:47.139Z,100.00
2023-02-09T03:56:14.479Z,100.00
2023-02-09T03:58:41.844Z,100.00
2023-02-09T04:01:11.011Z,100.00
2023-02-09T04:03:39.843Z,100.00
2023-02-09T04:06:07.433Z,100.00
2023-02-09T04:08:34.796Z,100.00
2023-02-09T04:11:02.192Z,100.00
2023-02-09T04:13:29.699Z,100.00
2023-02-09T04:15:57.074Z,100.00
2023-02-09T04:18:24.475Z,100.00
2023-02-09T04:20:51.852Z,100.00
2023-02-09T04:23:21.008Z,100.00
2023-02-09T04:25:48.579Z,100.00
2023-02-09T04:28:18.277Z,100.00
2023-02-09T04:30:45.974Z,100.00
2023-02-09T04:33:13.619Z,100.00
2023-02-09T04:35:41.057Z,100.00
2023-02-09T04:38:08.477Z,100.00
2023-02-09T04:40:35.855Z,100.00
2023-02-09T04:43:03.269Z,100.00
2023-02-09T04:45:30.877Z,100.00
2023-02-09T04:47:58.224Z,100.00
2023-02-09T04:50:25.827Z,100.00
2023-02-09T04:52:53.472Z,100.00
2023-02-09T04:55:20.822Z,100.00
2023-02-09T04:58:06.618Z,100.00
2023-02-09T05:00:33.994Z,100.00
2023-02-09T05:03:01.430Z,100.00
2023-02-09T05:05:29.009Z,100.00
2023-02-09T05:07:56.450Z,100.00
2023-02-09T05:10:23.785Z,100.00
2023-02-09T05:12:51.903Z,100.00
2023-02-09T05:15:19.337Z,100.00
2023-02-09T05:17:46.668Z,100.00
2023-02-09T05:20:14.065Z,100.00
2023-02-09T05:22:41.421Z,100.00
2023-02-09T05:25:08.944Z,100.00
2023-02-09T05:27:36.270Z,100.00
2023-02-09T05:30:04.183Z,100.00
2023-02-09T05:32:31.603Z,100.00
2023-02-09T05:34:59.006Z,100.00
2023-02-09T05:37:26.396Z,100.00
2023-02-09T05:39:54.129Z,100.00
2023-02-09T05:42:21.526Z,100.00
2023-02-09T05:44:50.690Z,100.00
2023-02-09T05:47:20.599Z,100.00
2023-02-09T05:49:48.320Z,100.00
2023-02-09T05:52:16.633Z,100.00
2023-02-09T05:54:44.230Z,100.00
2023-02-09T05:57:11.588Z,100.00
2023-02-09T05:59:38.923Z,100.00
2023-02-09T06:02:06.563Z,100.00
2023-02-09T06:04:34.657Z,100.00
2023-02-09T06:07:02.015Z,100.00
2023-02-09T06:09:29.407Z,100.00
2023-02-09T06:11:56.754Z,100.00
2023-02-09T06:14:24.294Z,100.00
2023-02-09T06:16:51.664Z,100.00
2023-02-09T06:19:21.052Z,100.00
2023-02-09T06:21:48.516Z,100.00
2023-02-09T06:24:17.070Z,100.00
2023-02-09T06:26:44.689Z,100.00
2023-02-09T06:29:12.227Z,100.00
2023-02-09T06:31:41.915Z,100.00
2023-02-09T06:34:09.641Z,100.00
2023-02-09T06:36:37.123Z,100.00
2023-02-09T06:39:08.455Z,100.00
2023-02-09T06:41:36.230Z,100.00
2023-02-09T06:44:03.896Z,100.00
2023-02-09T06:46:31.378Z,100.00
2023-02-09T06:48:59.593Z,100.00
2023-02-09T06:51:27.218Z,100.00
2023-02-09T06:53:54.859Z,100.00
2023-02-09T06:56:22.485Z,100.00
2023-02-09T06:58:49.873Z,100.00
2023-02-09T07:01:17.285Z,100.00
2023-02-09T07:03:45.190Z,100.00
2023-02-09T07:06:15.681Z,100.00
2023-02-09T07:08:43.563Z,100.00
2023-02-09T07:11:13.407Z,100.00
2023-02-09T07:13:40.958Z,100.00
2023-02-09T07:16:09.969Z,100.00
2023-02-09T07:18:38.047Z,100.00
2023-02-09T07:21:08.646Z,100.00
2023-02-09T07:23:36.125Z,100.00
2023-02-09T07:26:08.142Z,100.00
2023-02-09T07:28:36.404Z,100.00
2023-02-09T07:31:10.001Z,100.00
2023-02-09T07:33:37.897Z,100.00
2023-02-09T07:36:10.568Z,100.00
2023-02-09T07:38:38.449Z,100.00
2023-02-09T07:41:07.131Z,100.00
2023-02-09T07:43:34.820Z,100.00
2023-02-09T07:46:04.330Z,100.00
2023-02-09T07:48:32.227Z,100.00
2023-02-09T07:51:00.372Z,100.00
2023-02-09T07:53:28.516Z,100.00
2023-02-09T07:55:56.018Z,100.00
2023-02-09T07:58:23.749Z,100.00
2023-02-09T08:00:52.150Z,100.00
2023-02-09T08:03:22.637Z,100.00
2023-02-09T08:05:56.077Z,100.00
2023-02-09T08:08:23.486Z,100.00
2023-02-09T08:10:51.063Z,100.00
2023-02-09T08:13:18.682Z,100.00
2023-02-09T08:15:51.736Z,100.00
2023-02-09T08:18:29.724Z,100.00
2023-02-09T08:20:57.100Z,100.00
2023-02-09T08:23:27.262Z,100.00
2023-02-09T08:25:55.385Z,100.00
2023-02-09T08:28:38.330Z,100.00
2023-02-09T08:31:11.974Z,100.00
2023-02-09T08:33:39.570Z,100.00
2023-02-09T08:36:07.247Z,100.00
2023-02-09T08:38:37.989Z,100.00
2023-02-09T08:41:07.214Z,100.00
2023-02-09T08:43:34.756Z,100.00
2023-02-09T08:46:09.536Z,100.00
2023-02-09T08:48:39.825Z,100.00
2023-02-09T08:51:08.764Z,94.33
2023-02-09T08:53:36.212Z,90.73
2023-02-09T08:56:03.763Z,78.00
2023-02-09T08:58:33.240Z,73.34
2023-02-09T09:01:00.854Z,73.92
2023-02-09T09:03:31.516Z,74.34
2023-02-09T09:06:04.213Z,75.18
2023-02-09T09:08:32.561Z,73.68
2023-02-09T09:11:00.319Z,72.71
2023-02-09T09:13:28.122Z,74.02
2023-02-09T09:15:56.218Z,77.54
2023-02-09T09:18:25.263Z,77.04
2023-02-09T09:20:52.981Z,75.45
2023-02-09T09:23:21.199Z,76.82
2023-02-09T09:25:48.968Z,77.00
2023-02-09T09:28:16.709Z,73.28
2023-02-09T09:30:44.107Z,71.02
2023-02-09T09:33:11.571Z,65.73
2023-02-09T09:35:39.104Z,67.95
2023-02-09T09:38:06.460Z,65.07
2023-02-09T09:40:35.894Z,64.99
2023-02-09T09:43:04.968Z,65.90
2023-02-09T09:45:35.395Z,62.82
2023-02-09T09:48:03.106Z,61.62
2023-02-09T09:50:39.316Z,63.74
2023-02-09T09:53:18.692Z,63.76
2023-02-09T09:55:46.156Z,62.03
2023-02-09T09:58:18.661Z,60.94
2023-02-09T10:00:46.242Z,59.77
2023-02-09T10:03:21.369Z,58.70
2023-02-09T10:05:51.080Z,59.56
2023-02-09T10:08:42.871Z,59.38
2023-02-09T10:11:15.909Z,61.01
2023-02-09T10:13:49.208Z,61.94
2023-02-09T10:16:19.425Z,58.48
2023-02-09T10:18:54.545Z,54.48
2023-02-09T10:21:31.017Z,52.60
2023-02-09T10:24:01.392Z,52.14
2023-02-09T10:26:31.036Z,52.23
2023-02-09T10:29:07.806Z,53.97
2023-02-09T10:31:36.408Z,58.10
2023-02-09T10:34:12.049Z,55.76
2023-02-09T10:36:48.624Z,52.80
2023-02-09T10:39:16.123Z,53.29
2023-02-09T10:41:47.026Z,51.34
2023-02-09T10:44:24.131Z,53.10
2023-02-09T10:47:08.539Z,53.47
2023-02-09T10:49:39.767Z,51.03
2023-02-09T10:52:13.849Z,49.30
2023-02-09T10:54:43.825Z,47.39
2023-02-09T10:57:21.421Z,44.97
2023-02-09T10:59:56.559Z,43.73
2023-02-09T11:02:53.859Z,44.61
2023-02-09T11:05:21.252Z,48.79
2023-02-09T11:07:54.481Z,48.43
2023-02-09T11:10:22.206Z,47.47
2023-02-09T11:12:49.512Z,45.05
2023-02-09T11:15:24.159Z,43.26
2023-02-09T11:18:05.833Z,43.54
2023-02-09T11:20:36.567Z,42.35
2023-02-09T11:23:43.115Z,42.40
2023-02-09T11:26:26.496Z,41.87
2023-02-09T11:28:56.774Z,42.67
2023-02-09T11:32:02.359Z,41.97
2023-02-09T11:34:35.519Z,43.32
2023-02-09T11:37:10.411Z,41.97
2023-02-09T11:40:02.867Z,40.41
2023-02-09T11:42:44.512Z,40.08
2023-02-09T11:45:17.462Z,39.17
2023-02-09T11:48:09.681Z,39.18
2023-02-09T11:51:14.486Z,39.59
2023-02-09T11:53:54.291Z,39.34
2023-02-09T11:56:24.077Z,39.72
2023-02-09T11:59:25.376Z,41.30
2023-02-09T12:02:20.515Z,40.47
2023-02-09T12:05:00.874Z,38.25
2023-02-09T12:07:28.225Z,38.38
2023-02-09T12:10:00.171Z,37.88
2023-02-09T12:12:43.256Z,38.59
2023-02-09T12:15:17.536Z,39.16
2023-02-09T12:17:57.943Z,38.17
2023-02-09T12:20:31.186Z,38.68
2023-02-09T12:23:03.004Z,38.55
2023-02-09T12:25:45.741Z,38.72
2023-02-09T12:28:18.231Z,37.11
2023-02-09T12:30:45.972Z,36.68
2023-02-09T12:33:25.562Z,37.70
2023-02-09T12:36:12.647Z,37.33
2023-02-09T12:38:56.179Z,37.25
2023-02-09T12:41:46.253Z,35.43
2023-02-09T12:44:13.313Z,36.25
2023-02-09T12:46:51.439Z,36.75
2023-02-09T12:49:28.199Z,36.38
2023-02-09T12:52:14.142Z,36.56
2023-02-09T12:54:56.793Z,35.38
2023-02-09T12:57:25.432Z,35.97
2023-02-09T12:59:52.813Z,35.29
2023-02-09T13:02:38.952Z,36.50
2023-02-09T13:05:28.309Z,36.22
2023-02-09T13:08:10.787Z,37.22
2023-02-09T13:11:05.529Z,37.28
2023-02-09T13:13:34.299Z,35.24
2023-02-09T13:16:04.479Z,34.50
2023-02-09T13:18:45.458Z,35.79
2023-02-09T13:21:31.572Z,36.46
2023-02-09T13:24:08.485Z,35.60
2023-02-09T13:26:53.209Z,35.23
2023-02-09T13:29:25.458Z,36.50
2023-02-09T13:32:07.467Z,36.22
2023-02-09T13:34:55.875Z,36.83
2023-02-09T13:37:49.034Z,36.61
2023-02-09T13:40:18.839Z,36.19
2023-02-09T13:43:06.931Z,36.81
2023-02-09T13:45:34.324Z,37.29
2023-02-09T13:48:04.273Z,36.58
2023-02-09T13:50:32.052Z,36.16
2023-02-09T13:53:10.245Z,37.10
2023-02-09T13:55:45.263Z,36.48
2023-02-09T13:58:35.554Z,36.94
2023-02-09T14:01:08.390Z,36.08
2023-02-09T14:03:58.105Z,35.97
2023-02-09T14:06:44.394Z,35.69
2023-02-09T14:09:20.176Z,36.01
2023-02-09T14:11:52.794Z,36.35
2023-02-09T14:14:54.609Z,37.81
2023-02-09T14:17:40.144Z,38.41
2023-02-09T14:20:20.937Z,39.56
2023-02-09T14:23:00.495Z,40.99
2023-02-09T14:25:29.621Z,42.18
2023-02-09T14:27:57.708Z,43.62
2023-02-09T14:30:32.663Z,44.57
2023-02-09T14:33:04.487Z,45.10
2023-02-09T14:35:35.194Z,46.48
2023-02-09T14:38:03.554Z,46.86
2023-02-09T14:40:34.433Z,48.71
2023-02-09T14:43:10.736Z,49.53
2023-02-09T14:45:46.714Z,50.60
2023-02-09T14:48:17.697Z,51.56
2023-02-09T14:50:45.192Z,53.01
2023-02-09T14:53:15.566Z,53.15
2023-02-09T14:55:44.490Z,54.09
2023-02-09T14:58:23.449Z,54.66
2023-02-09T15:00:54.657Z,56.41
2023-02-09T15:03:22.061Z,56.04
2023-02-09T15:05:51.860Z,56.24
2023-02-09T15:08:22.107Z,57.74
2023-02-09T15:10:53.403Z,57.74
2023-02-09T15:13:21.520Z,59.14
2023-02-09T15:15:49.248Z,59.92
2023-02-09T15:18:23.573Z,60.66
2023-02-09T15:20:51.307Z,61.13
2023-02-09T15:23:19.228Z,62.52
2023-02-09T15:25:47.073Z,62.60
2023-02-09T15:28:28.239Z,64.31
2023-02-09T15:30:57.039Z,64.92
2023-02-09T15:33:26.236Z,65.26
2023-02-09T15:35:53.712Z,66.27
2023-02-09T15:38:21.175Z,66.01
2023-02-09T15:41:08.765Z,68.20
2023-02-09T15:43:54.885Z,69.08
2023-02-09T15:46:40.964Z,69.15
2023-02-09T15:49:08.435Z,69.93
2023-02-09T15:51:37.846Z,71.63
2023-02-09T15:54:17.459Z,73.14
2023-02-09T15:56:44.935Z,73.77
2023-02-09T15:59:19.762Z,73.83
2023-02-09T16:01:47.620Z,75.39
2023-02-09T16:04:15.251Z,77.90
2023-02-09T16:06:48.987Z,78.96
2023-02-09T16:09:22.323Z,79.18
2023-02-09T16:11:49.780Z,79.96
2023-02-09T16:14:20.559Z,81.07
2023-02-09T16:16:48.415Z,82.27
2023-02-09T16:19:16.857Z,83.44
2023-02-09T16:21:50.576Z,86.89
2023-02-09T16:24:41.272Z,90.13
2023-02-09T16:27:23.360Z,93.22
2023-02-09T16:29:50.680Z,95.16
2023-02-09T16:32:21.978Z,99.03
2023-02-09T16:34:49.840Z,99.64
2023-02-09T16:37:37.486Z,100.00
2023-02-09T16:40:15.080Z,100.00
2023-02-09T16:42:42.968Z,100.00
2023-02-09T16:45:14.506Z,100.00
2023-02-09T16:47:45.516Z,100.00
2023-02-09T16:50:25.580Z,100.00
2023-02-09T16:52:55.074Z,100.00
2023-02-09T16:55:28.657Z,100.00
2023-02-09T16:57:58.202Z,100.00
2023-02-09T17:00:28.914Z,100.00
2023-02-09T17:02:59.212Z,100.00
2023-02-09T17:05:29.750Z,100.00
2023-02-09T17:08:18.478Z,100.00
2023-02-09T17:10:47.749Z,100.00
2023-02-09T17:13:17.420Z,100.00
2023-02-09T17:15:47.848Z,100.00
2023-02-09T17:18:41.399Z,100.00
2023-02-09T17:21:35.322Z,100.00
2023-02-09T17:24:05.158Z,100.00
2023-02-09T17:26:32.565Z,100.00
2023-02-09T17:28:59.896Z,100.00
2023-02-09T17:31:36.128Z,100.00
2023-02-09T17:34:09.304Z,100.00
2023-02-09T17:36:37.572Z,100.00
2023-02-09T17:39:04.988Z,100.00
2023-02-09T17:41:37.057Z,100.00
2023-02-09T17:44:26.104Z,100.00
2023-02-09T17:46:59.480Z,100.00
2023-02-09T17:49:27.018Z,100.00
2023-02-09T17:51:54.509Z,100.00
2023-02-09T17:54:22.152Z,100.00
2023-02-09T17:56:49.617Z,100.00
2023-02-09T17:59:19.897Z,100.00
2023-02-09T18:01:50.093Z,100.00
2023-02-09T18:04:20.258Z,100.00
2023-02-09T18:06:48.187Z,100.00
2023-02-09T18:09:15.702Z,100.00
2023-02-09T18:12:02.112Z,100.00
2023-02-09T18:14:31.815Z,100.00
2023-02-09T18:16:59.693Z,100.00
2023-02-09T18:19:27.198Z,100.00
2023-02-09T18:21:57.421Z,100.00
2023-02-09T18:24:28.005Z,100.00
2023-02-09T18:26:55.424Z,100.00
2023-02-09T18:29:26.231Z,100.00
2023-02-09T18:31:53.965Z,100.00
2023-02-09T18:34:21.290Z,100.00
2023-02-09T18:36:48.717Z,100.00
2023-02-09T18:39:17.259Z,100.00
2023-02-09T18:41:46.324Z,100.00
2023-02-09T18:44:13.786Z,100.00
2023-02-09T18:46:43.203Z,100.00
2023-02-09T18:49:12.723Z,100.00
2023-02-09T18:51:40.074Z,100.00
2023-02-09T18:54:07.414Z,100.00
2023-02-09T18:56:34.788Z,100.00
2023-02-09T18:59:02.382Z,100.00
2023-02-09T19:01:29.777Z,100.00
2023-02-09T19:03:57.211Z,100.00
2023-02-09T19:06:27.870Z,100.00
2023-02-09T19:08:55.294Z,100.00
2023-02-09T19:11:23.434Z,100.00
2023-02-09T19:14:09.258Z,100.00
2023-02-09T19:16:37.715Z,100.00
2023-02-09T19:19:05.200Z,100.00
2023-02-09T19:21:32.598Z,100.00
2023-02-09T19:23:59.976Z,100.00
2023-02-09T19:26:27.380Z,100.00
2023-02-09T19:28:57.402Z,100.00
2023-02-09T19:31:25.360Z,100.00
2023-02-09T19:33:56.962Z,100.00
2023-02-09T19:36:25.197Z,100.00
2023-02-09T19:38:52.624Z,100.00
2023-02-09T19:41:23.234Z,100.00
2023-02-09T19:43:55.171Z,100.00
2023-02-09T19:46:23.002Z,100.00
2023-02-09T19:48:50.626Z,100.00
2023-02-09T19:51:18.150Z,100.00
2023-02-09T19:53:45.544Z,100.00
2023-02-09T19:56:17.520Z,100.00
2023-02-09T19:58:45.274Z,100.00
2023-02-09T20:01:13.331Z,100.00
2023-02-09T20:03:40.736Z,100.00
2023-02-09T20:06:09.855Z,100.00
2023-02-09T20:08:38.035Z,100.00
2023-02-09T20:11:13.206Z,100.00
2023-02-09T20:13:41.107Z,100.00
2023-02-09T20:16:10.921Z,100.00
2023-02-09T20:18:38.323Z,100.00
2023-02-09T20:21:09.796Z,100.00
2023-02-09T20:23:37.979Z,100.00
2023-02-09T20:26:17.684Z,100.00
2023-02-09T20:28:45.212Z,100.00
2023-02-09T20:31:14.978Z,100.00
2023-02-09T20:33:43.330Z,100.00
2023-02-09T20:36:10.974Z,100.00
2023-02-09T20:38:38.671Z,100.00
2023-02-09T20:41:15.010Z,100.00
2023-02-09T20:44:01.158Z,100.00
2023-02-09T20:46:49.702Z,100.00
2023-02-09T20:49:18.510Z,100.00
2023-02-09T20:51:46.329Z,100.00
2023-02-09T20:54:14.406Z,100.00
2023-02-09T20:56:42.518Z,100.00
2023-02-09T20:59:10.824Z,100.00
2023-02-09T21:01:39.447Z,100.00
2023-02-09T21:04:07.479Z,100.00
2023-02-09T21:06:38.806Z,100.00
2023-02-09T21:09:08.237Z,100.00
2023-02-09T21:11:35.662Z,100.00
2023-02-09T21:14:04.418Z,100.00
2023-02-09T21:16:32.264Z,100.00
2023-02-09T21:19:00.237Z,100.00
2023-02-09T21:21:28.303Z,100.00
2023-02-09T21:23:55.993Z,100.00
2023-02-09T21:26:24.450Z,100.00
2023-02-09T21:28:56.797Z,100.00
2023-02-09T21:31:28.603Z,100.00
2023-02-09T21:33:56.086Z,100.00
2023-02-09T21:36:23.892Z,100.00
2023-02-09T21:38:51.321Z,100.00
2023-02-09T21:41:40.159Z,100.00
2023-02-09T21:44:10.228Z,100.00
2023-02-09T21:46:38.464Z,100.00
2023-02-09T21:49:06.762Z,100.00
2023-02-09T21:51:34.571Z,100.00
2023-02-09T21:54:02.034Z,100.00
2023-02-09T21:56:29.581Z,100.00
2023-02-09T21:58:56.942Z,100.00
2023-02-09T22:01:24.449Z,100.00
2023-02-09T22:03:57.152Z,100.00
2023-02-09T22:06:25.740Z,100.00
2023-02-09T22:08:53.586Z,100.00
2023-02-09T22:11:20.921Z,100.00
2023-02-09T22:13:48.375Z,100.00
2023-02-09T22:16:20.972Z,100.00
2023-02-09T22:18:48.393Z,100.00
2023-02-09T22:21:16.344Z,100.00
2023-02-09T22:23:43.770Z,100.00
2023-02-09T22:26:13.762Z,100.00
2023-02-09T22:28:42.149Z,100.00
2023-02-09T22:31:12.242Z,100.00
2023-02-09T22:33:40.167Z,100.00
2023-02-09T22:36:09.439Z,100.00
2023-02-09T22:38:37.087Z,100.00
2023-02-09T22:41:05.656Z,100.00
2023-02-09T22:43:33.579Z,100.00
2023-02-09T22:46:01.181Z,100.00
2023-02-09T22:48:28.655Z,100.00
2023-02-09T22:50:56.075Z,100.00
2023-02-09T22:53:23.462Z,100.00
2023-02-09T22:55:50.840Z,100.00
2023-02-09T22:58:18.222Z,100.00
2023-02-09T23:00:45.622Z,100.00
2023-02-09T23:03:13.010Z,100.00
2023-02-09T23:05:40.504Z,100.00
2023-02-09T23:08:08.016Z,100.00
2023-02-09T23:10:35.437Z,100.00
2023-02-09T23:13:02.889Z,100.00
2023-02-09T23:15:30.262Z,100.00
2023-02-09T23:17:57.637Z,100.00
2023-02-09T23:20:25.132Z,100.00
2023-02-09T23:22:54.305Z,100.00
2023-02-09T23:25:24.247Z,100.00
2023-02-09T23:27:51.639Z,100.00
2023-02-09T23:30:19.197Z,100.00
2023-02-09T23:32:47.415Z,100.00
2023-02-09T23:35:14.847Z,100.00
2023-02-09T23:37:42.165Z,100.00
2023-02-09T23:40:10.217Z,100.00
2023-02-09T23:42:37.572Z,100.00
2023-02-09T23:45:06.407Z,100.00
2023-02-09T23:47:33.898Z,100.00
2023-02-09T23:50:01.337Z,100.00
2023-02-09T23:52:28.924Z,100.00
2023-02-09T23:54:56.281Z,100.00
2023-02-09T23:57:23.666Z,100.00
2023-02-09T23:59:50.999Z,100.00
